createdAt,value
2022-09-18T00:02:01.420Z,2.70
2022-09-18T00:04:31.016Z,3.93
2022-09-18T00:07:01.004Z,2.83
2022-09-18T00:09:29.622Z,2.60
2022-09-18T00:12:00.174Z,1.30
2022-09-18T00:14:28.827Z,0.83
2022-09-18T00:16:57.397Z,1.60
2022-09-18T00:19:26.058Z,2.67
2022-09-18T00:21:54.708Z,2.90
2022-09-18T00:24:24.758Z,2.63
2022-09-18T00:26:53.457Z,2.17
2022-09-18T00:29:22.083Z,5.90
2022-09-18T00:31:50.752Z,2.17
2022-09-18T00:34:19.457Z,2.10
2022-09-18T00:36:48.155Z,5.50
2022-09-18T00:39:17.055Z,5.53
2022-09-18T00:41:47.573Z,5.60
2022-09-18T00:44:37.711Z,3.43
2022-09-18T00:47:21.767Z,4.80
2022-09-18T00:49:59.946Z,5.50
2022-09-18T00:52:34.898Z,7.33
2022-09-18T00:55:09.461Z,3.47
2022-09-18T00:57:44.595Z,2.27
2022-09-18T01:00:23.678Z,3.33
2022-09-18T01:02:53.400Z,7.23
2022-09-18T01:05:39.595Z,3.03
2022-09-18T01:08:28.758Z,2.47
2022-09-18T01:11:22.123Z,3.70
2022-09-18T01:14:08.511Z,8.03
2022-09-18T01:16:47.883Z,4.00
2022-09-18T01:20:01.754Z,3.00
2022-09-18T01:22:53.250Z,3.97
2022-09-18T01:25:34.425Z,4.73
2022-09-18T01:28:20.072Z,2.93
2022-09-18T01:30:55.913Z,3.27
2022-09-18T01:33:34.628Z,2.23
2022-09-18T01:36:10.551Z,3.90
2022-09-18T01:38:46.750Z,2.23
2022-09-18T01:41:21.785Z,3.43
2022-09-18T01:43:57.825Z,4.23
2022-09-18T01:46:32.093Z,2.97
2022-09-18T01:49:07.733Z,3.13
2022-09-18T01:51:48.512Z,3.53
2022-09-18T01:54:21.671Z,2.80
2022-09-18T01:56:56.969Z,1.83
2022-09-18T01:59:34.259Z,2.10
2022-09-18T02:02:20.241Z,3.33
2022-09-18T02:04:58.769Z,2.77
2022-09-18T02:07:38.545Z,2.93
2022-09-18T02:10:08.373Z,2.27
2022-09-18T02:12:44.128Z,1.83
2022-09-18T02:15:17.064Z,1.87
2022-09-18T02:17:59.719Z,1.77
2022-09-18T02:20:39.652Z,4.37
2022-09-18T02:23:10.570Z,3.03
2022-09-18T02:25:45.532Z,4.47
2022-09-18T02:28:20.336Z,1.77
2022-09-18T02:30:50.786Z,2.27
2022-09-18T02:33:31.927Z,3.27
2022-09-18T02:36:37.384Z,3.77
2022-09-18T02:39:24.832Z,3.63
2022-09-18T02:42:11.036Z,4.47
2022-09-18T02:44:52.255Z,4.03
2022-09-18T02:47:44.376Z,3.67
2022-09-18T02:50:24.766Z,5.17
2022-09-18T02:53:04.394Z,9.20
2022-09-18T02:55:47.185Z,7.17
2022-09-18T02:58:26.240Z,9.03
2022-09-18T03:01:03.093Z,6.93
2022-09-18T03:03:39.233Z,9.17
2022-09-18T03:06:10.838Z,6.13
2022-09-18T03:08:40.427Z,6.87
2022-09-18T03:11:09.166Z,13.13
2022-09-18T03:13:38.123Z,8.47
2022-09-18T03:16:06.739Z,4.80
2022-09-18T03:18:38.083Z,6.33
2022-09-18T03:21:07.252Z,8.70
2022-09-18T03:23:36.100Z,9.63
2022-09-18T03:26:15.868Z,8.87
2022-09-18T03:28:45.208Z,7.33
2022-09-18T03:31:16.208Z,6.43
2022-09-18T03:33:47.964Z,9.90
2022-09-18T03:36:16.650Z,11.40
2022-09-18T03:38:45.471Z,5.47
2022-09-18T03:41:14.140Z,7.83
2022-09-18T03:43:44.194Z,9.90
2022-09-18T03:46:14.812Z,11.17
2022-09-18T03:48:43.480Z,9.50
2022-09-18T03:51:14.208Z,9.77
2022-09-18T03:53:42.882Z,10.03
2022-09-18T03:56:28.342Z,8.90
2022-09-18T03:59:12.162Z,8.57
2022-09-18T04:02:01.466Z,8.77
2022-09-18T04:04:30.963Z,9.37
2022-09-18T04:07:16.847Z,7.93
2022-09-18T04:10:20.703Z,13.67
2022-09-18T04:12:49.498Z,10.13
2022-09-18T04:15:28.575Z,7.70
2022-09-18T04:17:57.934Z,7.40
2022-09-18T04:20:26.599Z,7.67
2022-09-18T04:23:00.912Z,6.37
2022-09-18T04:25:30.098Z,11.00
2022-09-18T04:27:58.958Z,10.73
2022-09-18T04:30:27.608Z,10.17
2022-09-18T04:32:56.366Z,6.77
2022-09-18T04:35:27.186Z,9.17
2022-09-18T04:37:57.556Z,14.77
2022-09-18T04:40:26.356Z,9.13
2022-09-18T04:42:55.654Z,10.93
2022-09-18T04:45:24.319Z,9.73
2022-09-18T04:47:53.608Z,10.77
2022-09-18T04:50:25.326Z,7.83
2022-09-18T04:53:28.340Z,12.40
2022-09-18T04:55:58.507Z,9.40
2022-09-18T04:58:27.090Z,10.83
2022-09-18T05:01:02.200Z,6.93
2022-09-18T05:03:31.570Z,9.37
2022-09-18T05:06:00.320Z,7.17
2022-09-18T05:08:32.930Z,8.43
2022-09-18T05:11:04.602Z,11.60
2022-09-18T05:13:36.615Z,6.10
2022-09-18T05:16:11.202Z,7.37
2022-09-18T05:18:40.025Z,4.10
2022-09-18T05:21:08.773Z,10.97
2022-09-18T05:23:39.460Z,10.87
2022-09-18T05:26:08.243Z,10.13
2022-09-18T05:28:36.926Z,10.73
2022-09-18T05:31:06.320Z,12.20
2022-09-18T05:33:42.333Z,9.27
2022-09-18T05:36:12.356Z,6.97
2022-09-18T05:38:42.622Z,7.80
2022-09-18T05:41:11.267Z,7.77
2022-09-18T05:43:39.942Z,10.37
2022-09-18T05:46:12.070Z,8.27
2022-09-18T05:48:50.671Z,8.73
2022-09-18T05:51:20.834Z,6.57
2022-09-18T05:53:50.895Z,9.53
2022-09-18T05:56:29.105Z,7.03
2022-09-18T05:58:58.069Z,7.47
2022-09-18T06:01:27.329Z,9.70
2022-09-18T06:04:12.123Z,8.80
2022-09-18T06:06:52.075Z,5.37
2022-09-18T06:09:22.494Z,6.93
2022-09-18T06:11:51.229Z,6.77
2022-09-18T06:14:20.459Z,6.83
2022-09-18T06:16:49.893Z,9.43
2022-09-18T06:19:18.835Z,7.07
2022-09-18T06:21:49.949Z,9.63
2022-09-18T06:24:23.716Z,6.10
2022-09-18T06:27:02.288Z,6.90
2022-09-18T06:29:31.216Z,11.20
2022-09-18T06:32:06.968Z,7.63
2022-09-18T06:34:38.723Z,8.30
2022-09-18T06:37:11.116Z,11.53
2022-09-18T06:39:47.363Z,9.80
2022-09-18T06:42:43.906Z,9.03
2022-09-18T06:45:31.063Z,6.90
2022-09-18T06:48:03.518Z,10.87
2022-09-18T06:50:34.394Z,6.47
2022-09-18T06:53:05.929Z,8.00
2022-09-18T06:55:44.314Z,7.27
2022-09-18T06:58:13.278Z,5.73
2022-09-18T07:00:42.294Z,7.80
2022-09-18T07:03:13.245Z,6.90
2022-09-18T07:06:02.371Z,8.20
2022-09-18T07:08:43.522Z,5.73
2022-09-18T07:11:20.097Z,5.30
2022-09-18T07:13:50.107Z,9.60
2022-09-18T07:16:19.398Z,7.57
2022-09-18T07:18:54.254Z,9.03
2022-09-18T07:21:27.084Z,10.03
2022-09-18T07:24:01.279Z,8.67
2022-09-18T07:26:37.658Z,9.00
2022-09-18T07:29:10.230Z,9.77
2022-09-18T07:31:46.232Z,6.20
2022-09-18T07:34:18.221Z,8.00
2022-09-18T07:37:02.112Z,9.63
2022-09-18T07:39:35.541Z,7.60
2022-09-18T07:42:28.969Z,9.30
2022-09-18T07:45:03.287Z,9.97
2022-09-18T07:47:34.941Z,7.37
2022-09-18T07:50:09.938Z,6.77
2022-09-18T07:53:00.472Z,6.83
2022-09-18T07:55:37.246Z,8.87
2022-09-18T07:58:09.087Z,6.97
2022-09-18T08:01:08.142Z,11.07
2022-09-18T08:03:45.010Z,7.93
2022-09-18T08:06:14.638Z,6.27
2022-09-18T08:08:55.145Z,8.17
2022-09-18T08:11:42.998Z,5.83
2022-09-18T08:14:29.340Z,9.10
2022-09-18T08:17:22.312Z,7.60
2022-09-18T08:20:11.234Z,5.83
2022-09-18T08:22:49.357Z,6.10
2022-09-18T08:25:20.862Z,10.13
2022-09-18T08:27:50.883Z,8.03
2022-09-18T08:30:31.679Z,5.73
2022-09-18T08:33:08.201Z,5.67
2022-09-18T08:35:39.195Z,7.33
2022-09-18T08:38:33.869Z,6.20
2022-09-18T08:41:57.209Z,3.07
2022-09-18T08:44:31.165Z,7.50
2022-09-18T08:47:11.076Z,5.13
2022-09-18T08:49:47.481Z,6.03
2022-09-18T08:52:20.952Z,7.77
2022-09-18T08:55:03.731Z,5.33
2022-09-18T08:57:41.938Z,6.03
2022-09-18T09:00:22.298Z,8.17
2022-09-18T09:03:27.826Z,5.73
2022-09-18T09:06:02.387Z,6.33
2022-09-18T09:09:01.271Z,8.23
2022-09-18T09:11:48.231Z,9.13
2022-09-18T09:14:56.085Z,6.37
2022-09-18T09:17:49.702Z,12.13
2022-09-18T09:20:32.697Z,7.83
2022-09-18T09:23:07.927Z,8.77
2022-09-18T09:25:52.773Z,7.50
2022-09-18T09:28:46.071Z,6.07
2022-09-18T09:31:41.808Z,4.53
2022-09-18T09:34:37.154Z,8.10
2022-09-18T09:37:36.070Z,6.73
2022-09-18T09:40:13.443Z,8.93
2022-09-18T09:42:53.675Z,9.83
2022-09-18T09:45:31.291Z,5.57
2022-09-18T09:48:14.271Z,8.80
2022-09-18T09:50:58.210Z,9.40
2022-09-18T09:53:30.104Z,5.77
2022-09-18T09:56:13.414Z,4.00
2022-09-18T09:58:53.041Z,8.13
2022-09-18T10:01:29.131Z,5.03
2022-09-18T10:04:19.829Z,3.20
2022-09-18T10:07:01.715Z,2.97
2022-09-18T10:09:47.148Z,7.37
2022-09-18T10:12:29.235Z,4.13
2022-09-18T10:15:14.458Z,5.80
2022-09-18T10:17:50.924Z,8.10
2022-09-18T10:20:29.062Z,5.43
2022-09-18T10:23:12.698Z,5.40
2022-09-18T10:25:51.432Z,4.50
2022-09-18T10:28:21.416Z,6.03
2022-09-18T10:31:02.955Z,4.20
2022-09-18T10:33:39.449Z,5.00
2022-09-18T10:36:27.275Z,5.03
2022-09-18T10:39:00.201Z,5.60
2022-09-18T10:41:40.704Z,5.23
2022-09-18T10:44:26.327Z,4.90
2022-09-18T10:47:07.823Z,5.17
2022-09-18T10:49:42.061Z,4.30
2022-09-18T10:52:32.193Z,7.53
2022-09-18T10:55:20.847Z,4.20
2022-09-18T10:58:16.186Z,4.23
2022-09-18T11:01:02.809Z,4.07
2022-09-18T11:03:46.384Z,3.67
2022-09-18T11:06:30.162Z,4.93
2022-09-18T11:09:11.118Z,3.93
2022-09-18T11:11:52.469Z,6.40
2022-09-18T11:14:31.669Z,2.53
2022-09-18T11:17:15.833Z,4.67
2022-09-18T11:19:53.348Z,1.93
2022-09-18T11:22:41.610Z,5.00
2022-09-18T11:25:25.090Z,3.17
2022-09-18T11:27:59.502Z,2.17
2022-09-18T11:30:39.077Z,3.87
2022-09-18T11:33:22.195Z,2.73
2022-09-18T11:35:58.922Z,2.77
2022-09-18T11:38:29.918Z,3.00
2022-09-18T11:41:01.726Z,2.73
2022-09-18T11:43:41.241Z,7.57
2022-09-18T11:46:25.153Z,3.27
2022-09-18T11:49:04.769Z,3.57
2022-09-18T11:51:46.272Z,3.93
2022-09-18T11:54:31.107Z,4.47
2022-09-18T11:57:05.043Z,3.33
2022-09-18T11:59:44.306Z,5.53
2022-09-18T12:02:23.149Z,3.30
2022-09-18T12:05:01.954Z,5.47
2022-09-18T12:07:40.491Z,3.90
2022-09-18T12:10:20.124Z,2.23
2022-09-18T12:12:59.406Z,3.47
2022-09-18T12:15:37.744Z,4.97
2022-09-18T12:18:19.268Z,1.73
2022-09-18T12:20:59.400Z,3.20
2022-09-18T12:23:28.793Z,2.97
2022-09-18T12:26:16.925Z,3.03
2022-09-18T12:29:10.404Z,2.50
2022-09-18T12:31:52.755Z,3.73
2022-09-18T12:34:33.637Z,2.00
2022-09-18T12:37:20.530Z,2.57
2022-09-18T12:40:23.920Z,1.60
2022-09-18T12:43:20.310Z,2.93
2022-09-18T12:46:27.244Z,3.10
2022-09-18T12:49:21.437Z,3.97
2022-09-18T12:52:06.570Z,2.73
2022-09-18T12:55:21.847Z,1.77
2022-09-18T12:58:16.726Z,2.33
2022-09-18T13:00:51.296Z,2.20
2022-09-18T13:03:27.643Z,1.43
2022-09-18T13:06:07.789Z,3.87
2022-09-18T13:08:45.727Z,5.17
2022-09-18T13:11:34.276Z,5.13
2022-09-18T13:14:11.328Z,3.87
2022-09-18T13:16:50.389Z,3.50
2022-09-18T13:19:28.279Z,2.97
2022-09-18T13:22:05.775Z,3.50
2022-09-18T13:24:41.556Z,3.87
2022-09-18T13:27:17.301Z,3.87
2022-09-18T13:29:57.137Z,3.70
2022-09-18T13:32:41.160Z,3.97
2022-09-18T13:35:25.969Z,2.87
2022-09-18T13:38:21.196Z,5.23
2022-09-18T13:41:01.758Z,4.63
2022-09-18T13:43:42.610Z,2.67
2022-09-18T13:46:36.876Z,4.97
2022-09-18T13:49:31.205Z,3.37
2022-09-18T13:52:42.409Z,2.77
2022-09-18T13:55:39.198Z,3.80
2022-09-18T13:58:54.734Z,3.83
2022-09-18T14:02:03.434Z,2.87
2022-09-18T14:05:22.684Z,2.53
2022-09-18T14:08:35.731Z,5.97
2022-09-18T14:11:17.772Z,2.97
2022-09-18T14:13:55.609Z,3.23
2022-09-18T14:16:40.899Z,3.90
2022-09-18T14:19:36.286Z,2.53
2022-09-18T14:22:05.232Z,2.27
2022-09-18T14:25:03.555Z,1.83
2022-09-18T14:27:48.848Z,2.70
2022-09-18T14:30:30.349Z,2.83
2022-09-18T14:33:16.055Z,1.37
2022-09-18T14:35:57.206Z,1.23
2022-09-18T14:38:33.753Z,1.10
2022-09-18T14:41:19.600Z,1.17
2022-09-18T14:43:55.961Z,2.07
2022-09-18T14:46:28.176Z,4.13
2022-09-18T14:49:00.085Z,0.87
2022-09-18T14:51:44.733Z,2.20
2022-09-18T14:54:25.114Z,3.93
2022-09-18T14:57:03.836Z,2.93
2022-09-18T14:59:33.333Z,3.97
2022-09-18T15:02:29.563Z,3.93
2022-09-18T15:05:00.218Z,1.33
2022-09-18T15:07:29.549Z,1.77
2022-09-18T15:10:03.396Z,2.33
2022-09-18T15:12:35.529Z,4.27
2022-09-18T15:15:28.883Z,3.40
2022-09-18T15:21:29.936Z,2.03
2022-09-18T15:24:04.338Z,2.30
2022-09-18T15:26:44.455Z,2.63
2022-09-18T15:29:22.236Z,0.80
2022-09-18T15:31:53.329Z,2.17
2022-09-18T15:34:28.546Z,1.23
2022-09-18T15:37:04.183Z,2.27
2022-09-18T15:39:40.632Z,1.63
2022-09-18T15:42:34.278Z,1.40
2022-09-18T15:45:25.761Z,2.87
2022-09-18T15:47:59.183Z,5.77
2022-09-18T15:50:48.137Z,3.53
2022-09-18T15:53:26.306Z,4.57
2022-09-18T15:56:21.285Z,4.73
2022-09-18T15:59:02.451Z,1.83
2022-09-18T16:01:37.036Z,3.60
2022-09-18T16:04:27.486Z,2.03
2022-09-18T16:07:17.611Z,3.93
2022-09-18T16:09:50.718Z,3.50
2022-09-18T16:12:40.256Z,1.30
2022-09-18T16:15:23.252Z,1.47
2022-09-18T16:18:06.964Z,1.70
2022-09-18T16:20:41.560Z,3.30
2022-09-18T16:23:34.042Z,1.47
2022-09-18T16:26:11.754Z,1.43
2022-09-18T16:28:48.533Z,1.97
2022-09-18T16:31:22.940Z,0.77
2022-09-18T16:34:05.552Z,1.13
2022-09-18T16:36:39.448Z,1.70
2022-09-18T16:39:20.465Z,1.07
2022-09-18T16:41:51.180Z,2.50
2022-09-18T16:44:21.842Z,1.20
2022-09-18T16:46:56.600Z,1.63
2022-09-18T16:49:32.593Z,0.83
2022-09-18T16:52:03.779Z,0.80
2022-09-18T16:54:35.476Z,0.73
2022-09-18T16:57:13.397Z,2.40
2022-09-18T16:59:44.975Z,2.10
2022-09-18T17:02:19.339Z,0.60
2022-09-18T17:04:48.383Z,0.70
2022-09-18T17:07:43.780Z,1.97
2022-09-18T17:10:14.189Z,0.70
2022-09-18T17:12:43.740Z,3.47
2022-09-18T17:15:13.159Z,0.67
2022-09-18T17:17:41.813Z,0.70
2022-09-18T17:20:13.094Z,0.50
2022-09-18T17:22:41.748Z,0.67
2022-09-18T17:25:11.596Z,0.67
2022-09-18T17:27:43.850Z,1.00
2022-09-18T17:30:13.824Z,0.70
2022-09-18T17:32:42.658Z,1.70
2022-09-18T17:35:11.304Z,1.20
2022-09-18T17:37:40.582Z,1.10
2022-09-18T17:40:10.528Z,0.83
2022-09-18T17:42:41.609Z,0.93
2022-09-18T17:45:11.516Z,1.80
2022-09-18T17:47:42.154Z,0.70
2022-09-18T17:50:12.476Z,0.90
2022-09-18T17:52:41.211Z,0.70
2022-09-18T17:55:12.370Z,2.10
2022-09-18T17:57:42.462Z,3.47
2022-09-18T18:00:12.649Z,1.80
2022-09-18T18:02:41.448Z,0.60
2022-09-18T18:05:10.672Z,1.57
2022-09-18T18:07:40.325Z,1.23
2022-09-18T18:10:10.304Z,2.97
2022-09-18T18:12:39.300Z,1.87
2022-09-18T18:15:10.533Z,1.77
2022-09-18T18:17:40.265Z,1.80
2022-09-18T18:20:10.682Z,1.37
2022-09-18T18:22:39.343Z,1.33
2022-09-18T18:25:10.266Z,0.77
2022-09-18T18:27:38.940Z,2.53
2022-09-18T18:30:11.063Z,0.60
2022-09-18T18:32:43.339Z,1.70
2022-09-18T18:35:12.638Z,0.90
2022-09-18T18:37:43.593Z,0.70
2022-09-18T18:40:13.306Z,2.13
2022-09-18T18:42:42.489Z,0.63
2022-09-18T18:45:12.763Z,2.00
2022-09-18T18:47:48.716Z,0.70
2022-09-18T18:53:21.222Z,1.10
2022-09-18T18:55:51.528Z,0.73
2022-09-18T18:58:20.383Z,0.60
2022-09-18T19:00:52.644Z,0.70
2022-09-18T19:03:27.928Z,0.83
2022-09-18T19:05:58.962Z,2.33
2022-09-18T19:08:28.391Z,4.53
2022-09-18T19:10:59.564Z,4.13
2022-09-18T19:13:41.594Z,5.50
2022-09-18T19:16:12.975Z,2.63
2022-09-18T19:18:42.515Z,2.47
2022-09-18T19:21:11.440Z,1.73
2022-09-18T19:23:40.515Z,1.53
2022-09-18T19:26:11.540Z,1.20
2022-09-18T19:28:40.519Z,2.43
2022-09-18T19:31:09.476Z,3.27
2022-09-18T19:33:41.151Z,2.30
2022-09-18T19:36:11.648Z,1.70
2022-09-18T19:38:40.723Z,2.13
2022-09-18T19:41:32.229Z,1.33
2022-09-18T19:44:05.685Z,2.47
2022-09-18T19:46:35.831Z,1.30
2022-09-18T19:49:06.257Z,1.20
2022-09-18T19:51:38.013Z,2.17
2022-09-18T19:54:06.754Z,1.00
2022-09-18T19:56:42.944Z,5.40
2022-09-18T19:59:12.638Z,2.20
2022-09-18T20:01:41.457Z,1.30
2022-09-18T20:04:11.680Z,2.03
2022-09-18T20:06:42.497Z,0.90
2022-09-18T20:09:12.219Z,1.83
2022-09-18T20:11:40.844Z,2.83
2022-09-18T20:14:09.400Z,1.70
2022-09-18T20:16:38.104Z,3.63
2022-09-18T20:19:07.534Z,2.53
2022-09-18T20:21:37.717Z,3.33
2022-09-18T20:24:06.785Z,2.33
2022-09-18T20:26:35.560Z,1.37
2022-09-18T20:29:04.257Z,2.70
2022-09-18T20:31:33.018Z,2.13
2022-09-18T20:34:02.640Z,2.47
2022-09-18T20:36:32.072Z,2.47
2022-09-18T20:39:03.441Z,2.60
2022-09-18T20:41:32.169Z,1.23
2022-09-18T20:44:03.122Z,1.40
2022-09-18T20:46:36.943Z,0.90
2022-09-18T20:49:07.902Z,4.50
2022-09-18T20:51:37.154Z,0.80
2022-09-18T20:54:08.383Z,2.07
2022-09-18T20:56:42.058Z,0.77
2022-09-18T20:59:12.420Z,0.77
2022-09-18T21:01:42.359Z,5.87
2022-09-18T21:04:17.390Z,1.13
2022-09-18T21:06:49.046Z,3.90
2022-09-18T21:09:19.219Z,2.10
2022-09-18T21:11:47.928Z,3.07
2022-09-18T21:14:17.939Z,1.17
2022-09-18T21:16:46.855Z,3.90
2022-09-18T21:19:20.052Z,4.23
2022-09-18T21:21:49.943Z,1.37
2022-09-18T21:24:21.913Z,1.33
2022-09-18T21:26:51.780Z,1.00
2022-09-18T21:29:23.404Z,3.30
2022-09-18T21:31:55.090Z,1.43
2022-09-18T21:34:26.968Z,1.90
2022-09-18T21:36:59.420Z,4.63
2022-09-18T21:39:31.297Z,1.07
2022-09-18T21:42:02.732Z,2.53
2022-09-18T21:44:33.498Z,2.43
2022-09-18T21:47:06.546Z,5.03
2022-09-18T21:49:36.181Z,0.80
2022-09-18T21:52:09.222Z,1.10
2022-09-18T21:54:39.337Z,0.80
2022-09-18T21:57:08.709Z,0.77
2022-09-18T21:59:37.463Z,1.40
2022-09-18T22:02:08.694Z,1.73
2022-09-18T22:04:38.722Z,1.40
2022-09-18T22:07:07.398Z,1.77
2022-09-18T22:09:39.027Z,2.50
2022-09-18T22:12:08.839Z,2.50
2022-09-18T22:14:38.331Z,3.50
2022-09-18T22:17:09.737Z,4.50
2022-09-18T22:19:41.498Z,2.20
2022-09-18T22:22:10.638Z,2.27
2022-09-18T22:24:40.635Z,2.00
2022-09-18T22:27:10.297Z,2.37
2022-09-18T22:29:42.841Z,1.83
2022-09-18T22:32:11.546Z,0.73
2022-09-18T22:34:41.762Z,0.50
2022-09-18T22:37:11.911Z,0.93
2022-09-18T22:39:41.962Z,1.60
2022-09-18T22:42:10.933Z,1.83
2022-09-18T22:44:39.785Z,2.40
2022-09-18T22:47:09.634Z,1.17
2022-09-18T22:49:38.379Z,1.50
2022-09-18T22:52:08.003Z,1.87
2022-09-18T22:54:36.584Z,2.00
2022-09-18T22:57:07.389Z,1.33
2022-09-18T22:59:36.070Z,2.50
2022-09-18T23:02:08.055Z,2.27
2022-09-18T23:04:37.804Z,1.93
2022-09-18T23:07:06.951Z,2.20
2022-09-18T23:09:35.526Z,1.90
2022-09-18T23:12:06.120Z,2.67
2022-09-18T23:14:34.861Z,4.23
2022-09-18T23:17:03.489Z,3.13
2022-09-18T23:19:35.564Z,2.07
2022-09-18T23:22:05.039Z,2.57
2022-09-18T23:24:33.690Z,1.60
2022-09-18T23:27:02.771Z,2.07
2022-09-18T23:29:33.061Z,1.83
2022-09-18T23:32:01.776Z,1.40
2022-09-18T23:34:33.745Z,1.30
2022-09-18T23:37:02.982Z,3.97
2022-09-18T23:39:34.313Z,1.43
2022-09-18T23:42:05.857Z,3.53
2022-09-18T23:44:37.147Z,0.73
2022-09-18T23:47:05.937Z,1.97
2022-09-18T23:49:34.609Z,1.00
2022-09-18T23:52:03.789Z,2.90
2022-09-18T23:54:33.513Z,0.57
2022-09-18T23:57:02.277Z,2.53
2022-09-18T23:59:31.026Z,2.73
